Time;durP1;ratioP1;P1;durP2;ratioP2;P2;SDS_P1;SDS_P2;PMS_P1;PMS_P2;Temp;Humidity;BMP_temperature;BMP_pressure;BME280_temperature;BME280_humidity;BME280_pressure;Samples;Min_cycle;Max_cycle;Signal;HPM_P1;HPM_P2
2021/05/20 00:01:10;;;;;;;12.27;8.88;;;8.90;99.90;;;;;;4994579;28;20431;-79
2021/05/20 00:03:36;;;;;;;13.27;8.80;;;9.00;99.90;;;;;;4994086;28;20109;-79
2021/05/20 00:06:01;;;;;;;13.70;10.30;;;9.00;99.90;;;;;;4993074;28;20034;-79
2021/05/20 00:08:27;;;;;;;16.15;9.73;;;9.10;99.90;;;;;;4993214;28;20054;-79
2021/05/20 00:10:53;;;;;;;11.43;9.50;;;9.10;99.90;;;;;;4994493;28;20027;-80
2021/05/20 00:13:18;;;;;;;13.93;9.68;;;9.00;99.90;;;;;;4994211;28;20031;-79
2021/05/20 00:15:44;;;;;;;14.13;9.45;;;9.10;99.90;;;;;;4994086;28;20503;-79
2021/05/20 00:18:09;;;;;;;12.80;10.23;;;9.10;99.90;;;;;;4994357;28;20318;-80
2021/05/20 00:20:35;;;;;;;14.27;9.65;;;9.10;99.90;;;;;;4994711;28;20030;-79
2021/05/20 00:23:01;;;;;;;17.00;10.80;;;9.00;99.90;;;;;;4994173;28;20026;-79
2021/05/20 00:25:26;;;;;;;16.45;10.43;;;9.00;99.90;;;;;;4992372;28;20023;-79
2021/05/20 00:27:52;;;;;;;12.13;8.77;;;9.00;99.90;;;;;;4992634;28;20027;-79
2021/05/20 00:30:17;;;;;;;11.65;9.85;;;9.10;99.90;;;;;;4994062;28;20026;-79
2021/05/20 00:32:43;;;;;;;14.98;10.82;;;9.10;99.90;;;;;;4994048;28;20030;-79
2021/05/20 00:35:09;;;;;;;14.27;10.88;;;9.10;99.90;;;;;;4992204;28;20041;-80
2021/05/20 00:37:35;;;;;;;12.43;9.20;;;9.00;99.90;;;;;;4993876;28;20031;-79
2021/05/20 00:40:01;;;;;;;16.45;11.75;;;9.00;99.90;;;;;;4993938;28;20030;-79
2021/05/20 00:42:27;;;;;;;12.77;10.55;;;8.90;99.90;;;;;;4992611;28;20557;-79
2021/05/20 00:45:00;;;;;;;13.35;10.90;;;8.80;99.90;;;;;;4992062;28;20069;-80
2021/05/20 00:47:31;;;;;;;15.85;10.90;;;8.70;99.90;;;;;;4991708;28;20030;-79
2021/05/20 00:49:58;;;;;;;13.52;10.68;;;8.60;99.90;;;;;;4993634;28;20022;-79
2021/05/20 00:52:24;;;;;;;15.88;11.32;;;8.50;99.90;;;;;;4992418;28;20057;-79
2021/05/20 00:55:00;;;;;;;15.32;11.63;;;8.50;99.90;;;;;;4993048;28;20061;-79
2021/05/20 00:57:26;;;;;;;16.30;11.23;;;8.50;99.90;;;;;;4993569;28;20067;-79
2021/05/20 00:59:52;;;;;;;16.77;12.07;;;8.60;99.90;;;;;;4993267;28;20073;-79
2021/05/20 01:02:19;;;;;;;15.07;11.80;;;8.60;99.90;;;;;;4992130;28;20082;-79
2021/05/20 01:04:45;;;;;;;15.73;12.60;;;8.60;99.90;;;;;;4992790;28;20069;-80
2021/05/20 01:07:11;;;;;;;15.73;11.75;;;8.60;99.90;;;;;;4993335;28;20031;-79
2021/05/20 01:09:37;;;;;;;16.83;11.65;;;8.70;99.90;;;;;;4992126;28;20033;-79
2021/05/20 01:12:06;;;;;;;16.48;11.13;;;8.70;99.90;;;;;;4992084;28;20559;-79
2021/05/20 01:14:41;;;;;;;17.30;11.82;;;8.70;99.90;;;;;;4992606;28;20034;-79
2021/05/20 01:17:07;;;;;;;14.23;11.77;;;8.70;99.90;;;;;;4993095;28;20117;-80
2021/05/20 01:19:44;;;;;;;13.95;10.80;;;8.70;99.90;;;;;;4991910;28;20157;-79
2021/05/20 01:22:10;;;;;;;17.08;11.68;;;8.80;99.90;;;;;;4993181;28;20108;-79
2021/05/20 01:24:36;;;;;;;16.17;12.07;;;8.70;99.90;;;;;;4992491;28;20042;-78
2021/05/20 01:27:03;;;;;;;14.75;10.60;;;8.80;99.90;;;;;;4992791;28;20792;-79
2021/05/20 01:29:29;;;;;;;17.30;11.45;;;8.90;99.90;;;;;;4992681;28;20035;-79
2021/05/20 01:31:55;;;;;;;18.25;12.05;;;8.90;99.90;;;;;;4992926;28;20037;-79
2021/05/20 01:34:21;;;;;;;20.05;12.23;;;8.90;99.90;;;;;;4992439;28;20023;-79
2021/05/20 01:36:46;;;;;;;14.90;11.38;;;8.90;99.90;;;;;;4991687;28;20495;-79
2021/05/20 01:39:12;;;;;;;16.23;10.80;;;8.90;99.90;;;;;;4992877;28;20030;-79
2021/05/20 01:41:37;;;;;;;16.60;12.82;;;8.90;99.90;;;;;;4975412;28;20041;-79
2021/05/20 01:44:03;;;;;;;16.00;12.32;;;8.90;99.90;;;;;;4990868;28;20027;-79
2021/05/20 01:46:29;;;;;;;17.27;13.07;;;8.90;99.90;;;;;;4991325;28;20065;-79
2021/05/20 01:48:55;;;;;;;15.70;11.93;;;8.90;99.90;;;;;;4992722;28;20037;-79
2021/05/20 01:51:22;;;;;;;17.65;12.13;;;9.00;99.90;;;;;;4992671;28;20069;-80
2021/05/20 01:53:50;;;;;;;15.35;12.85;;;9.00;99.90;;;;;;4992289;28;20034;-79
2021/05/20 01:56:18;;;;;;;15.90;12.75;;;9.00;99.90;;;;;;4992652;28;20030;-79
2021/05/20 01:58:44;;;;;;;17.08;12.05;;;9.00;99.90;;;;;;4992084;28;20080;-79
2021/05/20 02:01:10;;;;;;;20.17;13.45;;;9.10;99.90;;;;;;4992272;28;20084;-79
2021/05/20 02:03:36;;;;;;;16.90;13.48;;;9.10;99.90;;;;;;4992371;28;20438;-79
2021/05/20 02:06:03;;;;;;;20.23;13.43;;;9.10;99.90;;;;;;4992240;28;20101;-79
2021/05/20 02:08:33;;;;;;;21.15;13.07;;;9.10;99.90;;;;;;4992561;28;20540;-80
2021/05/20 02:10:59;;;;;;;16.27;11.98;;;9.10;99.90;;;;;;4992550;28;20058;-79
2021/05/20 02:13:24;;;;;;;14.57;10.75;;;9.10;99.90;;;;;;4991762;28;20058;-78
2021/05/20 02:15:51;;;;;;;17.15;11.90;;;9.20;99.90;;;;;;4990915;28;20022;-79
2021/05/20 02:18:16;;;;;;;13.63;10.45;;;9.20;99.90;;;;;;4992400;28;20024;-79
2021/05/20 02:20:44;;;;;;;17.13;11.05;;;9.20;99.90;;;;;;4991169;28;20113;-79
2021/05/20 02:23:09;;;;;;;15.32;9.75;;;9.20;99.90;;;;;;4990843;28;20030;-79
2021/05/20 02:25:35;;;;;;;22.30;10.00;;;9.20;99.90;;;;;;4991982;28;20569;-79
2021/05/20 02:28:01;;;;;;;15.30;9.88;;;9.20;99.90;;;;;;4991914;28;20383;-79
2021/05/20 02:30:27;;;;;;;13.57;9.45;;;9.20;99.90;;;;;;4991087;28;20019;-78
2021/05/20 02:32:52;;;;;;;14.05;9.38;;;9.30;99.90;;;;;;4990497;28;20034;-79
2021/05/20 02:35:18;;;;;;;11.38;8.63;;;9.30;99.90;;;;;;4990731;28;20121;-79
2021/05/20 02:37:45;;;;;;;11.25;8.00;;;9.30;99.90;;;;;;4992197;28;20402;-79
2021/05/20 02:40:12;;;;;;;16.08;8.27;;;9.30;99.90;;;;;;4992169;28;20514;-79
2021/05/20 02:42:41;;;;;;;11.45;8.65;;;9.30;99.90;;;;;;4991810;28;20030;-80
2021/05/20 02:45:09;;;;;;;10.38;7.53;;;9.30;99.90;;;;;;4974097;28;20036;-79
2021/05/20 02:47:36;;;;;;;8.60;6.97;;;9.20;99.90;;;;;;4990817;28;20030;-78
2021/05/20 02:50:03;;;;;;;11.60;7.72;;;9.20;99.90;;;;;;4991797;28;20060;-79
2021/05/20 02:52:29;;;;;;;10.73;6.97;;;9.30;99.90;;;;;;4991221;28;20023;-78
2021/05/20 02:54:55;;;;;;;12.38;7.32;;;9.20;99.90;;;;;;4990014;28;20026;-79
2021/05/20 02:57:21;;;;;;;10.10;7.45;;;9.20;99.90;;;;;;4991059;28;20026;-79
2021/05/20 02:59:46;;;;;;;9.00;7.20;;;9.20;99.90;;;;;;4991755;28;20085;-79
2021/05/20 03:02:12;;;;;;;11.55;7.65;;;9.20;99.90;;;;;;4990704;28;20019;-79
2021/05/20 03:04:38;;;;;;;11.15;7.15;;;9.10;99.90;;;;;;4990281;28;20088;-78
2021/05/20 03:07:05;;;;;;;9.55;6.05;;;9.20;99.90;;;;;;4974527;28;20117;-79
2021/05/20 03:09:30;;;;;;;12.93;6.25;;;9.10;99.90;;;;;;4991038;28;20023;-78
2021/05/20 03:11:59;;;;;;;7.90;6.93;;;9.10;99.90;;;;;;4977890;28;20022;-79
2021/05/20 03:14:25;;;;;;;8.57;6.65;;;9.20;99.90;;;;;;4994829;28;20042;-79
2021/05/20 03:16:51;;;;;;;8.35;6.13;;;9.20;99.90;;;;;;4994290;28;20540;-79
2021/05/20 03:19:17;;;;;;;10.23;6.53;;;9.20;99.90;;;;;;4995475;28;20100;-79
2021/05/20 03:21:43;;;;;;;9.07;6.35;;;9.20;99.90;;;;;;4995526;28;20644;-80
2021/05/20 03:24:09;;;;;;;8.85;6.32;;;9.20;99.90;;;;;;4993515;28;20117;-79
2021/05/20 03:26:35;;;;;;;12.38;6.00;;;9.20;99.90;;;;;;4995182;28;20026;-78
2021/05/20 03:29:00;;;;;;;11.10;6.75;;;9.20;99.90;;;;;;4994800;28;20034;-78
2021/05/20 03:31:26;;;;;;;6.68;5.60;;;9.20;99.90;;;;;;4977801;28;20022;-79
2021/05/20 03:33:52;;;;;;;9.05;5.63;;;9.20;99.90;;;;;;4994758;28;20482;-78
2021/05/20 03:36:18;;;;;;;12.98;5.90;;;9.20;99.90;;;;;;4995085;28;20085;-80
2021/05/20 03:38:44;;;;;;;8.63;5.28;;;9.10;99.90;;;;;;4995011;28;20038;-79
2021/05/20 03:41:09;;;;;;;9.38;5.25;;;9.00;99.90;;;;;;4993780;28;20391;-79
2021/05/20 03:43:36;;;;;;;7.70;6.05;;;8.90;99.90;;;;;;4994764;28;20068;-79
2021/05/20 03:46:02;;;;;;;7.82;5.82;;;8.70;99.90;;;;;;4994610;28;20030;-79
2021/05/20 03:48:29;;;;;;;9.30;6.43;;;8.80;99.90;;;;;;4994906;28;20029;-79
2021/05/20 03:50:56;;;;;;;9.20;5.82;;;8.80;99.90;;;;;;4993614;28;20030;-79
2021/05/20 03:53:22;;;;;;;9.25;5.57;;;8.80;99.90;;;;;;4994461;28;20030;-79
2021/05/20 03:55:48;;;;;;;10.73;5.63;;;8.90;99.90;;;;;;4977029;28;20114;-79
2021/05/20 03:58:14;;;;;;;10.68;5.88;;;9.00;99.90;;;;;;4994513;28;20029;-79
2021/05/20 04:00:43;;;;;;;8.05;4.95;;;9.10;99.90;;;;;;4993436;28;20027;-79
2021/05/20 04:03:08;;;;;;;9.75;5.50;;;9.10;99.90;;;;;;4994611;28;20015;-78
2021/05/20 04:05:34;;;;;;;8.60;5.10;;;9.10;99.90;;;;;;4994091;28;20040;-79
2021/05/20 04:07:59;;;;;;;21.00;6.18;;;9.10;99.90;;;;;;4993155;28;20033;-79
2021/05/20 04:10:25;;;;;;;11.57;5.53;;;9.10;99.90;;;;;;4993242;28;20386;-79
2021/05/20 04:12:51;;;;;;;9.77;4.97;;;9.10;99.90;;;;;;4992965;28;20073;-79
2021/05/20 04:15:17;;;;;;;6.80;4.70;;;9.00;99.90;;;;;;4992900;28;20033;-79
2021/05/20 04:17:43;;;;;;;7.30;4.80;;;8.90;99.90;;;;;;4994421;28;20026;-79
2021/05/20 04:20:09;;;;;;;9.93;4.88;;;8.80;99.90;;;;;;4976833;28;20022;-78
2021/05/20 04:22:35;;;;;;;9.25;4.85;;;8.80;99.90;;;;;;4993010;28;20042;-79
2021/05/20 04:25:01;;;;;;;10.43;5.18;;;8.70;99.90;;;;;;4993648;28;20070;-79
2021/05/20 04:27:26;;;;;;;8.07;5.25;;;8.60;99.90;;;;;;4994097;28;20073;-79
2021/05/20 04:29:52;;;;;;;9.05;4.90;;;8.60;99.90;;;;;;4993963;28;20028;-79
2021/05/20 04:32:17;;;;;;;8.50;5.00;;;8.50;99.90;;;;;;4994143;28;20088;-79
2021/05/20 04:34:44;;;;;;;7.88;5.30;;;8.50;99.90;;;;;;4976083;28;20109;-79
2021/05/20 04:37:10;;;;;;;8.90;4.93;;;8.60;99.90;;;;;;4992643;28;20487;-79
2021/05/20 04:39:36;;;;;;;9.50;5.43;;;8.50;99.90;;;;;;4992640;28;20038;-79
2021/05/20 04:42:03;;;;;;;9.70;4.82;;;8.50;99.90;;;;;;4992687;28;20049;-79
2021/05/20 04:44:28;;;;;;;10.15;5.05;;;8.50;99.90;;;;;;4993362;28;20116;-79
2021/05/20 04:46:54;;;;;;;6.25;4.78;;;8.60;99.90;;;;;;4993811;28;20085;-80
2021/05/20 04:49:19;;;;;;;8.60;4.57;;;8.70;99.90;;;;;;4992499;28;20038;-78
2021/05/20 04:51:45;;;;;;;5.93;4.63;;;8.80;99.90;;;;;;4993591;28;20054;-79
2021/05/20 04:54:11;;;;;;;8.45;4.78;;;8.80;99.90;;;;;;4993118;28;20041;-79
2021/05/20 04:56:36;;;;;;;14.07;5.13;;;9.00;99.90;;;;;;4993650;28;20031;-79
2021/05/20 04:59:03;;;;;;;4.32;3.60;;;9.10;99.90;;;;;;4992063;28;20037;-79
2021/05/20 05:01:29;;;;;;;13.20;4.70;;;9.10;99.90;;;;;;4993481;28;20434;-79
2021/05/20 05:03:56;;;;;;;6.28;3.38;;;9.10;99.90;;;;;;4993015;28;20096;-79
2021/05/20 05:06:22;;;;;;;10.10;3.67;;;9.10;99.90;;;;;;4991992;28;20562;-80
2021/05/20 05:08:47;;;;;;;7.63;4.03;;;9.20;99.90;;;;;;4993385;28;20105;-79
2021/05/20 05:11:13;;;;;;;8.02;4.07;;;9.40;99.90;;;;;;4993413;28;20099;-78
2021/05/20 05:13:38;;;;;;;12.13;4.22;;;9.50;99.90;;;;;;4993052;28;20101;-78
2021/05/20 05:16:04;;;;;;;7.22;3.28;;;9.60;99.90;;;;;;4993117;28;20022;-80
2021/05/20 05:18:29;;;;;;;11.63;3.72;;;9.60;99.90;;;;;;4992031;28;20033;-78
2021/05/20 05:20:55;;;;;;;9.57;3.55;;;9.60;99.90;;;;;;4991919;28;20026;-79
2021/05/20 05:23:20;;;;;;;8.57;3.42;;;9.70;99.90;;;;;;4992879;28;20023;-79
2021/05/20 05:25:50;;;;;;;9.90;3.42;;;9.80;99.90;;;;;;4991355;28;20045;-79
2021/05/20 05:28:16;;;;;;;10.65;3.83;;;9.90;99.90;;;;;;4992818;28;20026;-79
2021/05/20 05:30:43;;;;;;;18.40;3.15;;;9.90;99.90;;;;;;4993141;28;20441;-79
2021/05/20 05:33:08;;;;;;;7.22;3.00;;;9.90;99.90;;;;;;4992689;28;20048;-79
2021/05/20 05:35:34;;;;;;;17.08;3.63;;;10.00;99.90;;;;;;4992110;28;20022;-79
2021/05/20 05:37:59;;;;;;;10.38;2.33;;;10.00;99.90;;;;;;4991627;28;20117;-79
2021/05/20 05:40:25;;;;;;;12.40;3.40;;;10.00;99.90;;;;;;4992863;28;20045;-79
2021/05/20 05:42:50;;;;;;;4.75;2.60;;;10.20;99.90;;;;;;4992626;28;20026;-79
2021/05/20 05:45:16;;;;;;;6.63;2.35;;;10.30;99.90;;;;;;4975191;28;20121;-79
2021/05/20 05:47:41;;;;;;;9.00;2.20;;;10.50;99.90;;;;;;4992715;28;20068;-79
2021/05/20 05:50:11;;;;;;;5.50;2.03;;;10.50;99.90;;;;;;4992663;28;20027;-79
2021/05/20 05:52:37;;;;;;;9.50;2.00;;;10.50;99.90;;;;;;4991432;28;20033;-79
2021/05/20 05:55:04;;;;;;;8.30;2.67;;;10.50;99.90;;;;;;4974686;28;20030;-78
2021/05/20 05:57:29;;;;;;;10.45;2.85;;;10.50;99.90;;;;;;4991418;28;20114;-79
2021/05/20 05:59:55;;;;;;;12.88;4.13;;;10.50;99.90;;;;;;4992400;28;20125;-79
2021/05/20 06:02:22;;;;;;;12.85;3.13;;;10.50;99.90;;;;;;4990068;28;20085;-79
2021/05/20 06:04:51;;;;;;;8.88;3.03;;;10.50;99.90;;;;;;4991765;28;20058;-79
2021/05/20 06:07:17;;;;;;;8.40;3.05;;;10.40;99.90;;;;;;4991815;28;20065;-79
2021/05/20 06:09:44;;;;;;;8.43;3.22;;;10.30;99.90;;;;;;4992380;28;20118;-80
2021/05/20 06:12:10;;;;;;;8.10;2.53;;;10.40;99.90;;;;;;4974787;28;20026;-79
2021/05/20 06:14:39;;;;;;;11.38;2.58;;;10.50;99.90;;;;;;4991704;28;20023;-79
2021/05/20 06:17:05;;;;;;;9.38;2.42;;;10.30;99.90;;;;;;4974854;28;20117;-79
2021/05/20 06:19:31;;;;;;;6.45;2.33;;;10.30;99.90;;;;;;4974864;28;20125;-79
2021/05/20 06:21:56;;;;;;;7.05;2.20;;;10.40;99.90;;;;;;4992036;28;20046;-78
2021/05/20 06:24:22;;;;;;;21.88;2.53;;;10.40;99.90;;;;;;4974215;28;20034;-80
2021/05/20 06:26:47;;;;;;;5.53;1.60;;;10.40;99.90;;;;;;4974690;28;20114;-80
2021/05/20 06:29:14;;;;;;;6.03;1.90;;;10.30;99.90;;;;;;4992069;28;20514;-79
2021/05/20 06:31:39;;;;;;;7.40;1.58;;;10.30;99.90;;;;;;4990985;28;20022;-79
2021/05/20 06:34:05;;;;;;;14.10;2.42;;;10.40;99.90;;;;;;4974239;28;20026;-79
2021/05/20 06:36:31;;;;;;;5.97;2.00;;;10.50;99.90;;;;;;4990757;28;20462;-79
2021/05/20 06:38:56;;;;;;;6.80;2.20;;;10.70;99.90;;;;;;4990948;28;20026;-78
2021/05/20 06:41:22;;;;;;;6.50;2.28;;;10.70;99.90;;;;;;4992114;28;20101;-79
2021/05/20 06:43:48;;;;;;;6.45;2.08;;;10.60;99.90;;;;;;4990405;28;20491;-80
2021/05/20 06:46:13;;;;;;;7.75;2.45;;;10.60;99.90;;;;;;4995032;28;20449;-80
2021/05/20 06:48:39;;;;;;;5.43;1.33;;;10.60;99.90;;;;;;4994617;28;20487;-79
2021/05/20 06:51:05;;;;;;;7.20;2.00;;;10.80;99.90;;;;;;4994439;28;20036;-79
2021/05/20 06:53:32;;;;;;;10.50;2.35;;;10.90;99.90;;;;;;4978219;28;20130;-79
2021/05/20 06:55:59;;;;;;;5.75;1.90;;;11.40;99.90;;;;;;4978046;28;20026;-79
2021/05/20 07:01:09;;;;;;;3.20;1.55;;;11.60;99.90;;;;;;4995479;28;20106;-79
2021/05/20 07:03:35;;;;;;;5.53;1.55;;;11.20;99.90;;;;;;4978059;28;20043;-80
2021/05/20 07:06:01;;;;;;;5.32;1.77;;;11.20;99.90;;;;;;4977858;28;20029;-80
2021/05/20 07:08:26;;;;;;;9.52;2.38;;;11.40;99.90;;;;;;4994368;28;20044;-80
2021/05/20 07:10:57;;;;;;;9.25;2.10;;;11.90;99.90;;;;;;4978099;28;20022;-80
2021/05/20 07:13:23;;;;;;;9.20;3.15;;;12.10;99.90;;;;;;4993911;28;20030;-80
2021/05/20 07:15:49;;;;;;;4.60;1.67;;;11.90;99.90;;;;;;4995141;28;20030;-80
2021/05/20 07:18:16;;;;;;;5.00;1.50;;;11.80;99.90;;;;;;4995502;28;20034;-79
2021/05/20 07:20:42;;;;;;;7.65;2.35;;;11.70;99.90;;;;;;4995259;28;20027;-80
2021/05/20 07:23:12;;;;;;;7.25;1.35;;;11.70;99.90;;;;;;4994031;28;20037;-82
2021/05/20 07:25:39;;;;;;;14.00;1.77;;;11.90;99.90;;;;;;4975517;28;20023;-80
2021/05/20 07:28:05;;;;;;;4.90;1.83;;;12.20;99.90;;;;;;4960499;28;20479;-81
2021/05/20 07:30:31;;;;;;;4.15;1.65;;;12.60;99.90;;;;;;4995182;28;20434;-79
2021/05/20 07:32:56;;;;;;;11.52;2.03;;;12.20;99.90;;;;;;4995231;28;20074;-79
2021/05/20 07:35:22;;;;;;;8.38;1.80;;;11.90;99.90;;;;;;4976990;28;20391;-80
2021/05/20 07:37:48;;;;;;;9.52;2.05;;;11.70;99.90;;;;;;4977310;28;20057;-79
2021/05/20 07:40:14;;;;;;;11.18;1.92;;;11.70;99.90;;;;;;4995032;28;20041;-79
2021/05/20 07:42:40;;;;;;;9.85;2.33;;;11.60;99.90;;;;;;4993531;28;20034;-80
2021/05/20 07:45:06;;;;;;;7.57;2.20;;;11.60;99.90;;;;;;4994325;28;20049;-79
2021/05/20 07:47:32;;;;;;;11.93;2.40;;;11.60;99.90;;;;;;4994713;28;20491;-79
2021/05/20 07:49:57;;;;;;;15.07;2.40;;;11.40;99.90;;;;;;4993560;28;20034;-79
2021/05/20 07:52:23;;;;;;;15.63;2.28;;;11.40;99.90;;;;;;4993480;28;20031;-79
2021/05/20 07:54:49;;;;;;;8.15;1.73;;;11.40;99.90;;;;;;4992808;28;20045;-80
2021/05/20 07:57:16;;;;;;;10.18;2.20;;;11.40;99.90;;;;;;4994331;28;20156;-79
2021/05/20 07:59:41;;;;;;;9.65;2.13;;;11.60;99.90;;;;;;4993105;28;20035;-79
2021/05/20 08:04:40;;;;;;;3.95;2.28;;;11.50;99.90;;;;;;4994204;28;20049;-79
2021/05/20 08:07:24;;;;;;;11.85;2.67;;;11.30;99.90;;;;;;4976949;28;20034;-79
2021/05/20 08:10:22;;;;;;;6.95;2.63;;;11.10;99.90;;;;;;4994445;28;20122;-80
2021/05/20 08:12:48;;;;;;;8.43;2.67;;;11.50;99.90;;;;;;4994166;28;20475;-79
2021/05/20 08:15:14;;;;;;;6.35;2.33;;;12.40;99.90;;;;;;4994073;28;20018;-79
2021/05/20 08:17:40;;;;;;;8.13;1.90;;;12.30;99.90;;;;;;4993161;28;20057;-79
2021/05/20 08:20:07;;;;;;;7.00;2.05;;;12.00;99.90;;;;;;4994028;28;20391;-80
2021/05/20 08:22:34;;;;;;;6.22;1.98;;;11.80;99.90;;;;;;4994261;28;20494;-79
2021/05/20 08:24:59;;;;;;;9.57;2.35;;;11.50;99.90;;;;;;4993611;28;20106;-79
2021/05/20 08:27:25;;;;;;;5.57;2.22;;;11.40;99.90;;;;;;4993840;28;20038;-79
2021/05/20 08:29:50;;;;;;;4.85;1.80;;;11.40;99.90;;;;;;4976259;28;20037;-80
2021/05/20 08:32:16;;;;;;;5.38;2.00;;;11.50;99.90;;;;;;4993995;28;20503;-80
2021/05/20 08:34:42;;;;;;;5.50;2.00;;;11.60;99.90;;;;;;4993281;28;20030;-79
2021/05/20 08:37:08;;;;;;;10.20;2.33;;;11.80;99.90;;;;;;4976537;28;20058;-79
2021/05/20 08:39:33;;;;;;;8.05;2.72;;;11.70;99.90;;;;;;4993876;28;20027;-79
2021/05/20 08:41:59;;;;;;;10.88;2.75;;;11.60;99.90;;;;;;4992684;28;20022;-79
2021/05/20 08:44:27;;;;;;;6.78;1.95;;;11.40;99.90;;;;;;4993239;28;20042;-80
2021/05/20 08:46:56;;;;;;;7.07;2.13;;;11.50;99.90;;;;;;4976211;28;20080;-79
2021/05/20 08:49:22;;;;;;;9.57;2.28;;;11.40;99.90;;;;;;4992314;28;20026;-79
2021/05/20 08:51:48;;;;;;;8.05;2.10;;;11.30;99.90;;;;;;4993671;28;20045;-79
2021/05/20 08:54:15;;;;;;;8.82;2.20;;;11.20;99.90;;;;;;4991876;28;20030;-79
2021/05/20 08:56:45;;;;;;;4.15;1.50;;;11.10;99.90;;;;;;4993671;28;20030;-79
2021/05/20 08:59:12;;;;;;;4.18;1.95;;;11.10;99.90;;;;;;4992042;28;20038;-79
2021/05/20 09:01:40;;;;;;;9.73;2.10;;;11.10;99.90;;;;;;4976427;28;20049;-80
2021/05/20 09:04:07;;;;;;;6.57;1.90;;;11.40;99.90;;;;;;4991356;28;20049;-79
2021/05/20 09:06:35;;;;;;;9.88;2.30;;;11.50;99.90;;;;;;4992071;28;20029;-79
2021/05/20 09:09:02;;;;;;;6.82;2.33;;;11.50;99.90;;;;;;4992726;28;20101;-78
2021/05/20 09:11:28;;;;;;;3.17;1.70;;;11.50;99.90;;;;;;4975908;28;20398;-79
2021/05/20 09:14:01;;;;;;;5.45;1.58;;;11.60;99.90;;;;;;4991609;28;20022;-79
2021/05/20 09:16:27;;;;;;;2.22;1.42;;;11.80;99.90;;;;;;4993104;28;20027;-79
2021/05/20 09:18:52;;;;;;;5.20;1.33;;;12.10;99.90;;;;;;4993113;28;20041;-79
2021/05/20 09:21:18;;;;;;;4.32;1.60;;;12.30;99.90;;;;;;4993228;28;20034;-79
2021/05/20 09:23:50;;;;;;;5.20;1.77;;;12.50;99.90;;;;;;4991456;28;20061;-79
2021/05/20 09:26:16;;;;;;;3.92;1.65;;;12.40;99.90;;;;;;4992819;28;20462;-78
2021/05/20 09:28:47;;;;;;;7.93;1.70;;;12.20;99.90;;;;;;4992558;28;20062;-79
2021/05/20 09:31:14;;;;;;;13.82;1.90;;;12.20;99.90;;;;;;4993005;28;20023;-78
2021/05/20 09:33:53;;;;;;;2.03;1.10;;;12.00;99.90;;;;;;4992487;28;20093;-78
2021/05/20 09:36:23;;;;;;;4.32;1.70;;;11.80;99.90;;;;;;4991434;28;20033;-78
2021/05/20 09:38:49;;;;;;;3.10;1.65;;;11.80;99.90;;;;;;4975048;28;20062;-79
2021/05/20 09:41:19;;;;;;;5.32;1.65;;;11.70;99.90;;;;;;4956092;28;20062;-78
2021/05/20 09:43:46;;;;;;;5.57;1.85;;;11.80;99.90;;;;;;4963206;28;20030;-78
2021/05/20 09:46:14;;;;;;;4.07;1.70;;;12.00;99.90;;;;;;4992533;28;20037;-78
2021/05/20 09:48:42;;;;;;;1.45;1.10;;;12.50;99.90;;;;;;4991516;28;20121;-79
2021/05/20 09:51:24;;;;;;;8.00;1.55;;;13.10;99.90;;;;;;4991415;28;20081;-79
2021/05/20 09:53:53;;;;;;;11.02;3.75;;;13.30;99.90;;;;;;4992181;28;20025;-79
2021/05/20 09:56:31;;;;;;;7.95;1.40;;;13.50;99.90;;;;;;4992582;28;20026;-79
2021/05/20 09:58:56;;;;;;;8.27;2.30;;;13.70;99.90;;;;;;4992358;28;20030;-79
2021/05/20 10:01:22;;;;;;;6.75;1.40;;;13.70;99.90;;;;;;4975047;28;20030;-79
2021/05/20 10:03:53;;;;;;;3.05;1.45;;;13.30;99.90;;;;;;4974731;28;20026;-79
2021/05/20 10:06:39;;;;;;;7.57;1.38;;;13.20;99.90;;;;;;4991062;28;20033;-79
2021/05/20 10:09:07;;;;;;;4.55;1.40;;;13.00;99.90;;;;;;4992501;28;20541;-78
2021/05/20 10:11:35;;;;;;;3.95;1.20;;;12.60;99.90;;;;;;4975013;28;20029;-78
2021/05/20 10:14:03;;;;;;;13.70;6.45;;;12.40;99.90;;;;;;4990481;28;20037;-79
2021/05/20 10:16:29;;;;;;;25.17;16.50;;;12.20;99.90;;;;;;4992322;28;20069;-78
2021/05/20 10:18:56;;;;;;;9.73;3.70;;;12.20;99.90;;;;;;4992937;28;20068;-80
2021/05/20 10:21:28;;;;;;;81.93;44.53;;;12.20;99.90;;;;;;4978870;28;20054;-80
2021/05/20 10:23:56;;;;;;;29.75;15.60;;;12.30;99.90;;;;;;4978853;28;20034;-80
2021/05/20 10:26:22;;;;;;;11.23;7.53;;;12.40;99.90;;;;;;4994983;28;20033;-80
2021/05/20 10:28:47;;;;;;;5.38;2.70;;;12.50;99.90;;;;;;4994498;28;20026;-80
2021/05/20 10:31:15;;;;;;;9.35;4.80;;;12.50;99.90;;;;;;4995920;28;20019;-78
2021/05/20 10:33:42;;;;;;;12.38;5.72;;;12.40;99.90;;;;;;4978704;28;20093;-79
2021/05/20 10:36:23;;;;;;;15.25;6.63;;;12.60;99.90;;;;;;4996151;28;20021;-79
2021/05/20 10:38:49;;;;;;;5.57;5.07;;;12.40;99.90;;;;;;4994602;28;20023;-79
2021/05/20 10:41:17;;;;;;;3.42;2.05;;;12.50;99.90;;;;;;4996375;28;20029;-79
2021/05/20 10:43:51;;;;;;;17.42;5.85;;;12.50;99.90;;;;;;4995733;28;20061;-79
2021/05/20 10:46:20;;;;;;;2.33;1.30;;;12.50;99.90;;;;;;4978702;28;20586;-81
2021/05/20 10:48:50;;;;;;;5.03;2.80;;;12.60;99.90;;;;;;4995724;28;20038;-81
2021/05/20 10:51:18;;;;;;;2.03;1.17;;;12.80;99.90;;;;;;4996046;28;20030;-80
2021/05/20 10:53:46;;;;;;;2.38;1.02;;;12.90;99.90;;;;;;4995798;28;20026;-81
2021/05/20 10:56:15;;;;;;;2.58;1.83;;;13.10;99.90;;;;;;4994616;28;20018;-79
2021/05/20 10:58:44;;;;;;;4.85;1.40;;;13.60;99.90;;;;;;4995454;28;20564;-80
2021/05/20 11:01:24;;;;;;;2.20;1.20;;;14.50;99.90;;;;;;4995733;28;20097;-79
2021/05/20 11:03:51;;;;;;;1.92;1.10;;;15.30;99.90;;;;;;4994336;28;20073;-80
2021/05/20 11:06:44;;;;;;;3.75;1.30;;;15.70;99.90;;;;;;4995595;28;20026;-81
2021/05/20 11:09:19;;;;;;;4.00;1.38;;;16.20;99.90;;;;;;4994853;28;20034;-81
2021/05/20 11:11:44;;;;;;;5.13;2.38;;;15.90;99.90;;;;;;4995607;28;20105;-81
2021/05/20 11:14:12;;;;;;;2.30;1.40;;;15.10;99.90;;;;;;4994767;28;20054;-80
2021/05/20 11:16:43;;;;;;;4.57;1.25;;;14.30;99.90;;;;;;4995497;28;20037;-79
2021/05/20 11:19:21;;;;;;;4.13;1.17;;;13.80;99.90;;;;;;4995139;28;20106;-81
2021/05/20 11:22:03;;;;;;;2.95;1.02;;;13.60;99.90;;;;;;4994198;28;20022;-82
2021/05/20 11:24:37;;;;;;;1.70;1.10;;;13.60;99.90;;;;;;4993846;28;20442;-82
2021/05/20 11:27:03;;;;;;;0.90;0.85;;;13.30;99.90;;;;;;4994920;28;20062;-82
2021/05/20 11:29:36;;;;;;;4.70;1.92;;;12.90;99.90;;;;;;4994852;28;20030;-82
2021/05/20 11:32:25;;;;;;;11.13;1.58;;;12.80;99.90;;;;;;4977234;28;20042;-81
2021/05/20 11:37:26;;;;;;;3.80;1.58;;;12.90;99.90;;;;;;4995199;28;20092;-83
2021/05/20 11:39:51;;;;;;;3.08;1.48;;;12.80;99.90;;;;;;4994965;28;20030;-84
2021/05/20 11:42:28;;;;;;;2.95;1.60;;;12.60;99.90;;;;;;4977466;28;20423;-83
2021/05/20 11:44:55;;;;;;;2.10;1.10;;;12.60;99.90;;;;;;4994458;28;20030;-83
2021/05/20 11:47:22;;;;;;;6.65;1.85;;;12.70;99.90;;;;;;4994919;28;20487;-82
2021/05/20 11:49:49;;;;;;;3.50;1.50;;;12.80;99.90;;;;;;4994790;28;20077;-83
2021/05/20 11:52:15;;;;;;;5.25;2.00;;;13.00;99.90;;;;;;4994931;28;20625;-83
2021/05/20 11:54:46;;;;;;;3.28;1.77;;;13.30;99.90;;;;;;4994231;28;20034;-83
2021/05/20 11:57:16;;;;;;;3.60;1.27;;;14.00;99.90;;;;;;4994846;28;20022;-84
2021/05/20 11:59:49;;;;;;;3.80;1.83;;;13.80;99.90;;;;;;4976919;28;20041;-83
2021/05/20 12:02:27;;;;;;;3.35;1.90;;;13.60;99.90;;;;;;4995009;28;20034;-86
2021/05/20 12:05:10;;;;;;;3.05;1.70;;;13.60;99.90;;;;;;4993169;28;20038;-86
2021/05/20 12:07:39;;;;;;;4.07;1.27;;;13.50;99.90;;;;;;4993567;28;20034;-88
2021/05/20 12:10:12;;;;;;;3.88;1.40;;;14.10;99.90;;;;;;4993758;28;20018;-88
2021/05/20 12:12:39;;;;;;;3.38;1.38;;;14.60;99.90;;;;;;4994753;28;20149;-87
2021/05/20 12:15:19;;;;;;;3.10;1.55;;;14.80;99.90;;;;;;4992888;28;20042;-86
2021/05/20 12:17:46;;;;;;;6.25;1.35;;;14.50;99.90;;;;;;4993293;28;20027;-86
2021/05/20 12:20:14;;;;;;;4.15;1.40;;;15.00;99.90;;;;;;4993583;28;20036;-87
2021/05/20 12:22:40;;;;;;;4.85;1.55;;;15.50;99.90;;;;;;4993229;28;20045;-89
2021/05/20 12:25:11;;;;;;;6.63;1.50;;;16.10;99.90;;;;;;4993486;28;20027;-88
2021/05/20 12:27:37;;;;;;;5.78;1.75;;;16.20;99.90;;;;;;4994922;28;20045;-89
2021/05/20 12:30:19;;;;;;;2.47;1.65;;;15.70;99.90;;;;;;4992985;28;20018;-88
2021/05/20 12:32:50;;;;;;;3.50;1.50;;;15.40;99.90;;;;;;4994380;28;20112;-89
2021/05/20 12:35:23;;;;;;;3.40;1.42;;;16.00;99.90;;;;;;4993161;28;20026;-88
2021/05/20 12:37:53;;;;;;;1.90;1.48;;;16.70;99.90;;;;;;4994997;28;20023;-88
2021/05/20 12:40:28;;;;;;;2.67;1.23;;;17.10;99.90;;;;;;4992988;28;20115;-89
2021/05/20 12:43:20;;;;;;;4.03;1.80;;;16.60;99.90;;;;;;4993334;28;20038;-84
2021/05/20 12:45:55;;;;;;;9.55;1.83;;;15.70;99.90;;;;;;4985282;28;20045;-81
2021/05/20 12:48:25;;;;;;;3.20;1.58;;;15.20;99.90;;;;;;4992335;28;20030;-80
2021/05/20 12:50:52;;;;;;;10.25;1.48;;;15.30;99.90;;;;;;4991258;28;20513;-80
2021/05/20 12:53:28;;;;;;;2.30;1.38;;;16.00;99.90;;;;;;4993351;28;20030;-81
2021/05/20 12:55:54;;;;;;;3.38;1.90;;;16.50;99.90;;;;;;4993389;28;20109;-80